sensor_id;sensor_type;location;lat;lon;timestamp;pressure;altitude;pressure_sealevel;temperature;humidity
51031;BME280;37058;41.442;23.240;2023-05-07T00:00:39;100594.44;;;15.59;82.17
51031;BME280;37058;41.442;23.240;2023-05-07T00:03:05;100589.84;;;15.39;83.75
51031;BME280;37058;41.442;23.240;2023-05-07T00:05:32;100592.94;;;15.22;83.86
51031;BME280;37058;41.442;23.240;2023-05-07T00:07:58;100591.56;;;15.20;83.67
51031;BME280;37058;41.442;23.240;2023-05-07T00:10:24;100598.97;;;15.19;83.57
51031;BME280;37058;41.442;23.240;2023-05-07T00:12:51;100594.56;;;15.23;83.90
51031;BME280;37058;41.442;23.240;2023-05-07T00:15:16;100592.09;;;15.27;83.51
51031;BME280;37058;41.442;23.240;2023-05-07T00:17:42;100595.38;;;15.34;83.60
51031;BME280;37058;41.442;23.240;2023-05-07T00:20:09;100595.91;;;15.36;83.53
51031;BME280;37058;41.442;23.240;2023-05-07T00:22:35;100595.09;;;15.35;83.94
51031;BME280;37058;41.442;23.240;2023-05-07T00:25:00;100601.69;;;15.45;83.97
51031;BME280;37058;41.442;23.240;2023-05-07T00:27:26;100592.84;;;15.48;83.61
51031;BME280;37058;41.442;23.240;2023-05-07T00:29:52;100595.03;;;15.51;83.50
51031;BME280;37058;41.442;23.240;2023-05-07T00:32:18;100600.53;;;15.51;83.87
51031;BME280;37058;41.442;23.240;2023-05-07T00:34:44;100603.59;;;15.44;84.55
51031;BME280;37058;41.442;23.240;2023-05-07T00:37:10;100601.69;;;15.45;84.67
51031;BME280;37058;41.442;23.240;2023-05-07T00:39:37;100605.50;;;15.49;84.48
51031;BME280;37058;41.442;23.240;2023-05-07T00:42:03;100600.53;;;15.51;83.98
51031;BME280;37058;41.442;23.240;2023-05-07T00:44:29;100617.59;;;15.53;83.53
51031;BME280;37058;41.442;23.240;2023-05-07T00:46:57;100605.47;;;15.54;83.03
51031;BME280;37058;41.442;23.240;2023-05-07T00:49:26;100612.91;;;15.58;82.49
51031;BME280;37058;41.442;23.240;2023-05-07T00:51:55;100611.50;;;15.61;82.06
51031;BME280;37058;41.442;23.240;2023-05-07T00:54:22;100614.28;;;15.61;81.91
51031;BME280;37058;41.442;23.240;2023-05-07T00:56:48;100614.84;;;15.58;81.94
51031;BME280;37058;41.442;23.240;2023-05-07T00:59:14;100620.59;;;15.56;81.97
51031;BME280;37058;41.442;23.240;2023-05-07T01:01:40;100622.00;;;15.54;81.94
51031;BME280;37058;41.442;23.240;2023-05-07T01:04:06;100616.50;;;15.49;81.92
51031;BME280;37058;41.442;23.240;2023-05-07T01:06:32;100622.03;;;15.44;81.85
51031;BME280;37058;41.442;23.240;2023-05-07T01:08:59;100617.66;;;15.37;82.10
51031;BME280;37058;41.442;23.240;2023-05-07T01:11:26;100618.50;;;15.33;82.39
51031;BME280;37058;41.442;23.240;2023-05-07T01:13:52;100617.16;;;15.15;83.36
51031;BME280;37058;41.442;23.240;2023-05-07T01:16:18;100615.00;;;15.02;84.17
51031;BME280;37058;41.442;23.240;2023-05-07T01:18:44;100624.31;;;15.01;83.86
51031;BME280;37058;41.442;23.240;2023-05-07T01:21:16;100625.16;;;15.01;83.79
51031;BME280;37058;41.442;23.240;2023-05-07T01:23:44;100634.25;;;14.97;84.20
51031;BME280;37058;41.442;23.240;2023-05-07T01:26:11;100627.09;;;14.85;85.14
51031;BME280;37058;41.442;23.240;2023-05-07T01:28:36;100629.59;;;14.82;85.70
51031;BME280;37058;41.442;23.240;2023-05-07T01:31:03;100631.50;;;14.71;86.38
51031;BME280;37058;41.442;23.240;2023-05-07T01:33:34;100630.41;;;14.72;86.48
51031;BME280;37058;41.442;23.240;2023-05-07T01:36:01;100630.41;;;14.72;86.54
51031;BME280;37058;41.442;23.240;2023-05-07T01:38:30;100626.84;;;14.66;87.07
51031;BME280;37058;41.442;23.240;2023-05-07T01:40:56;100636.16;;;14.60;87.33
51031;BME280;37058;41.442;23.240;2023-05-07T01:43:23;100624.88;;;14.51;87.76
51031;BME280;37058;41.442;23.240;2023-05-07T01:45:49;100642.19;;;14.47;88.22
51031;BME280;37058;41.442;23.240;2023-05-07T01:48:15;100634.19;;;14.40;89.10
51031;BME280;37058;41.442;23.240;2023-05-07T01:50:44;100638.03;;;14.34;89.55
51031;BME280;37058;41.442;23.240;2023-05-07T01:53:10;100635.03;;;14.30;89.90
51031;BME280;37058;41.442;23.240;2023-05-07T01:55:36;100633.91;;;14.26;90.30
51031;BME280;37058;41.442;23.240;2023-05-07T01:58:03;100633.34;;;14.24;89.80
51031;BME280;37058;41.442;23.240;2023-05-07T02:00:29;100635.25;;;14.19;89.42
51031;BME280;37058;41.442;23.240;2023-05-07T02:02:55;100638.53;;;14.05;90.04
51031;BME280;37058;41.442;23.240;2023-05-07T02:05:23;100626.97;;;13.93;90.55
51031;BME280;37058;41.442;23.240;2023-05-07T02:07:49;100629.66;;;13.78;91.25
51031;BME280;37058;41.442;23.240;2023-05-07T02:10:15;100630.19;;;13.80;90.41
51031;BME280;37058;41.442;23.240;2023-05-07T02:12:41;100626.91;;;13.78;89.92
51031;BME280;37058;41.442;23.240;2023-05-07T02:15:08;100620.56;;;13.77;89.15
51031;BME280;37058;41.442;23.240;2023-05-07T02:17:34;100629.91;;;13.71;88.98
51031;BME280;37058;41.442;23.240;2023-05-07T02:20:01;100627.38;;;13.59;88.90
51031;BME280;37058;41.442;23.240;2023-05-07T02:22:27;100619.97;;;13.60;88.27
51031;BME280;37058;41.442;23.240;2023-05-07T02:24:52;100627.94;;;13.61;87.63
51031;BME280;37058;41.442;23.240;2023-05-07T02:27:18;100626.25;;;13.55;86.86
51031;BME280;37058;41.442;23.240;2023-05-07T02:29:44;100631.16;;;13.48;86.29
51031;BME280;37058;41.442;23.240;2023-05-07T02:32:10;100632.53;;;13.51;86.23
51031;BME280;37058;41.442;23.240;2023-05-07T02:34:36;100626.25;;;13.50;85.67
51031;BME280;37058;41.442;23.240;2023-05-07T02:37:02;100632.78;;;13.44;84.72
51031;BME280;37058;41.442;23.240;2023-05-07T02:39:28;100632.25;;;13.42;84.50
51031;BME280;37058;41.442;23.240;2023-05-07T02:41:54;100624.53;;;13.44;84.51
51031;BME280;37058;41.442;23.240;2023-05-07T02:44:20;100632.28;;;13.47;84.19
51031;BME280;37058;41.442;23.240;2023-05-07T02:46:46;100632.81;;;13.49;84.06
51031;BME280;37058;41.442;23.240;2023-05-07T02:49:12;100629.78;;;13.46;84.26
51031;BME280;37058;41.442;23.240;2023-05-07T02:51:37;100641.00;;;13.44;83.62
51031;BME280;37058;41.442;23.240;2023-05-07T02:54:03;100641.00;;;13.44;84.06
51031;BME280;37058;41.442;23.240;2023-05-07T02:56:30;100642.69;;;13.50;83.66
51031;BME280;37058;41.442;23.240;2023-05-07T02:58:55;100634.75;;;13.54;83.85
51031;BME280;37058;41.442;23.240;2023-05-07T03:01:22;100639.19;;;13.60;83.83
51031;BME280;37058;41.442;23.240;2023-05-07T03:03:48;100635.63;;;13.64;83.98
51031;BME280;37058;41.442;23.240;2023-05-07T03:06:13;100646.53;;;13.54;85.08
51031;BME280;37058;41.442;23.240;2023-05-07T03:08:39;100652.25;;;13.37;86.38
51031;BME280;37058;41.442;23.240;2023-05-07T03:11:06;100653.28;;;13.31;86.17
51031;BME280;37058;41.442;23.240;2023-05-07T03:13:32;100646.97;;;13.31;86.02
51031;BME280;37058;41.442;23.240;2023-05-07T03:15:57;100653.31;;;13.36;85.69
51031;BME280;37058;41.442;23.240;2023-05-07T03:18:23;100657.19;;;13.40;85.03
51031;BME280;37058;41.442;23.240;2023-05-07T03:20:49;100650.06;;;13.39;84.35
51031;BME280;37058;41.442;23.240;2023-05-07T03:23:15;100654.09;;;13.32;84.11
51031;BME280;37058;41.442;23.240;2023-05-07T03:25:41;100661.78;;;13.30;84.39
51031;BME280;37058;41.442;23.240;2023-05-07T03:28:07;100658.50;;;13.33;83.90
51031;BME280;37058;41.442;23.240;2023-05-07T03:30:32;100663.44;;;13.31;83.51
51031;BME280;37058;41.442;23.240;2023-05-07T03:32:58;100659.00;;;13.25;83.43
51031;BME280;37058;41.442;23.240;2023-05-07T03:35:24;100658.38;;;13.17;83.43
51031;BME280;37058;41.442;23.240;2023-05-07T03:37:50;100664.97;;;13.21;83.44
51031;BME280;37058;41.442;23.240;2023-05-07T03:40:16;100661.38;;;13.16;83.58
51031;BME280;37058;41.442;23.240;2023-05-07T03:42:42;100664.16;;;13.21;83.51
51031;BME280;37058;41.442;23.240;2023-05-07T03:45:08;100666.94;;;13.26;83.23
51031;BME280;37058;41.442;23.240;2023-05-07T03:47:34;100669.47;;;13.28;83.14
51031;BME280;37058;41.442;23.240;2023-05-07T03:50:00;100672.00;;;13.39;82.77
51031;BME280;37058;41.442;23.240;2023-05-07T03:52:26;100668.75;;;13.48;82.30
51031;BME280;37058;41.442;23.240;2023-05-07T03:54:55;100668.22;;;13.51;82.04
51031;BME280;37058;41.442;23.240;2023-05-07T03:57:21;100669.34;;;13.55;83.04
51031;BME280;37058;41.442;23.240;2023-05-07T03:59:46;100680.88;;;13.62;83.18
51031;BME280;37058;41.442;23.240;2023-05-07T04:02:12;100676.81;;;13.70;82.73
51031;BME280;37058;41.442;23.240;2023-05-07T04:04:38;100679.34;;;13.81;82.08
51031;BME280;37058;41.442;23.240;2023-05-07T04:07:04;100681.88;;;13.93;81.82
51031;BME280;37058;41.442;23.240;2023-05-07T04:09:30;100683.28;;;14.01;81.80
51031;BME280;37058;41.442;23.240;2023-05-07T04:11:56;100682.16;;;14.02;81.99
51031;BME280;37058;41.442;23.240;2023-05-07T04:14:22;100683.56;;;14.04;82.43
51031;BME280;37058;41.442;23.240;2023-05-07T04:16:48;100691.78;;;14.04;82.54
51031;BME280;37058;41.442;23.240;2023-05-07T04:19:13;100695.94;;;14.12;82.70
51031;BME280;37058;41.442;23.240;2023-05-07T04:21:39;100701.22;;;14.29;81.79
51031;BME280;37058;41.442;23.240;2023-05-07T04:24:06;100705.38;;;14.37;81.84
51031;BME280;37058;41.442;23.240;2023-05-07T04:26:32;100698.81;;;14.53;80.73
51031;BME280;37058;41.442;23.240;2023-05-07T04:28:57;100702.97;;;14.71;80.22
51031;BME280;37058;41.442;23.240;2023-05-07T04:31:24;100704.09;;;14.85;79.22
51031;BME280;37058;41.442;23.240;2023-05-07T04:33:50;100703.28;;;15.05;77.70
51031;BME280;37058;41.442;23.240;2023-05-07T04:36:17;100719.50;;;15.27;76.90
51031;BME280;37058;41.442;23.240;2023-05-07T04:38:43;100720.03;;;15.45;75.40
51031;BME280;37058;41.442;23.240;2023-05-07T04:41:09;100723.31;;;15.47;74.73
51031;BME280;37058;41.442;23.240;2023-05-07T04:43:35;100730.72;;;15.61;74.82
51031;BME280;37058;41.442;23.240;2023-05-07T04:46:01;100723.00;;;15.69;75.42
51031;BME280;37058;41.442;23.240;2023-05-07T04:48:27;100728.81;;;15.72;74.42
51031;BME280;37058;41.442;23.240;2023-05-07T04:50:54;100727.44;;;15.75;74.01
51031;BME280;37058;41.442;23.240;2023-05-07T04:53:20;100728.81;;;15.77;74.25
51031;BME280;37058;41.442;23.240;2023-05-07T04:55:47;100735.09;;;15.83;75.00
51031;BME280;37058;41.442;23.240;2023-05-07T04:58:13;100737.88;;;15.83;75.34
51031;BME280;37058;41.442;23.240;2023-05-07T05:00:39;100732.34;;;15.88;74.61
51031;BME280;37058;41.442;23.240;2023-05-07T05:03:07;100733.41;;;15.92;74.95
51031;BME280;37058;41.442;23.240;2023-05-07T05:05:33;100732.03;;;15.95;75.32
51031;BME280;37058;41.442;23.240;2023-05-07T05:07:59;100737.53;;;15.95;75.85
51031;BME280;37058;41.442;23.240;2023-05-07T05:10:24;100732.03;;;15.95;76.10
51031;BME280;37058;41.442;23.240;2023-05-07T05:12:51;100732.84;;;16.06;75.76
51031;BME280;37058;41.442;23.240;2023-05-07T05:15:17;100730.84;;;16.16;75.27
51031;BME280;37058;41.442;23.240;2023-05-07T05:17:43;100736.06;;;16.23;75.18
51031;BME280;37058;41.442;23.240;2023-05-07T05:20:09;100729.38;;;16.34;74.71
51031;BME280;37058;41.442;23.240;2023-05-07T05:22:36;100735.69;;;16.40;74.74
51031;BME280;37058;41.442;23.240;2023-05-07T05:25:02;100734.84;;;16.44;74.74
51031;BME280;37058;41.442;23.240;2023-05-07T05:27:29;100740.50;;;16.63;74.45
51031;BME280;37058;41.442;23.240;2023-05-07T05:29:55;100745.69;;;16.75;74.22
51031;BME280;37058;41.442;23.240;2023-05-07T05:32:21;100745.41;;;16.82;74.07
51031;BME280;37058;41.442;23.240;2023-05-07T05:34:47;100743.75;;;16.81;73.70
51031;BME280;37058;41.442;23.240;2023-05-07T05:37:13;100751.94;;;16.91;73.65
51031;BME280;37058;41.442;23.240;2023-05-07T05:39:39;100750.19;;;17.05;73.38
51031;BME280;37058;41.442;23.240;2023-05-07T05:42:05;100752.88;;;17.16;73.15
51031;BME280;37058;41.442;23.240;2023-05-07T05:44:31;100758.31;;;17.26;71.91
51031;BME280;37058;41.442;23.240;2023-05-07T05:46:57;100750.47;;;17.38;71.88
51031;BME280;37058;41.442;23.240;2023-05-07T05:49:25;100754.66;;;17.60;70.33
51031;BME280;37058;41.442;23.240;2023-05-07T05:51:51;100746.72;;;17.82;68.88
51031;BME280;37058;41.442;23.240;2023-05-07T05:54:17;100750.81;;;18.14;66.58
51031;BME280;37058;41.442;23.240;2023-05-07T05:56:43;100743.94;;;18.30;64.96
51031;BME280;37058;41.442;23.240;2023-05-07T05:59:09;100744.66;;;18.60;63.20
51031;BME280;37058;41.442;23.240;2023-05-07T06:01:35;100745.81;;;18.97;59.71
51031;BME280;37058;41.442;23.240;2023-05-07T06:04:00;100741.84;;;19.36;57.91
51031;BME280;37058;41.442;23.240;2023-05-07T06:06:26;100744.84;;;19.53;58.18
51031;BME280;37058;41.442;23.240;2023-05-07T06:08:53;100739.38;;;19.81;57.36
51031;BME280;37058;41.442;23.240;2023-05-07T06:11:18;100734.56;;;19.73;57.50
51031;BME280;37058;41.442;23.240;2023-05-07T06:13:45;100740.88;;;21.37;53.75
51031;BME280;37058;41.442;23.240;2023-05-07T06:16:11;100741.31;;;22.24;49.70
51031;BME280;37058;41.442;23.240;2023-05-07T06:18:37;100743.03;;;22.03;49.22
51031;BME280;37058;41.442;23.240;2023-05-07T06:21:03;100736.41;;;23.43;45.58
51031;BME280;37058;41.442;23.240;2023-05-07T06:23:29;100737.44;;;23.30;45.95
51031;BME280;37058;41.442;23.240;2023-05-07T06:25:54;100732.31;;;24.98;41.66
51031;BME280;37058;41.442;23.240;2023-05-07T06:28:20;100730.50;;;25.14;40.89
51031;BME280;37058;41.442;23.240;2023-05-07T06:30:46;100728.88;;;23.52;43.50
51031;BME280;37058;41.442;23.240;2023-05-07T06:33:12;100724.00;;;22.54;44.26
51031;BME280;37058;41.442;23.240;2023-05-07T06:35:38;100729.06;;;21.85;45.91
51031;BME280;37058;41.442;23.240;2023-05-07T06:38:04;100726.97;;;21.37;48.20
51031;BME280;37058;41.442;23.240;2023-05-07T06:40:30;100723.25;;;20.74;50.00
51031;BME280;37058;41.442;23.240;2023-05-07T06:42:56;100717.75;;;20.61;50.03
51031;BME280;37058;41.442;23.240;2023-05-07T06:45:22;100717.13;;;20.50;50.05
51031;BME280;37058;41.442;23.240;2023-05-07T06:47:48;100719.84;;;20.41;51.32
51031;BME280;37058;41.442;23.240;2023-05-07T06:50:14;100719.09;;;20.35;52.50
51031;BME280;37058;41.442;23.240;2023-05-07T06:52:42;100726.38;;;20.45;52.65
51031;BME280;37058;41.442;23.240;2023-05-07T06:55:09;100721.88;;;20.49;53.12
51031;BME280;37058;41.442;23.240;2023-05-07T06:57:34;100716.75;;;20.56;53.48
51031;BME280;37058;41.442;23.240;2023-05-07T07:00:00;100710.84;;;20.58;52.99
51031;BME280;37058;41.442;23.240;2023-05-07T07:02:26;100716.50;;;20.67;52.99
51031;BME280;37058;41.442;23.240;2023-05-07T07:04:52;100720.78;;;20.73;52.10
51031;BME280;37058;41.442;23.240;2023-05-07T07:07:18;100716.38;;;20.72;52.37
51031;BME280;37058;41.442;23.240;2023-05-07T07:09:44;100705.06;;;20.68;52.69
51031;BME280;37058;41.442;23.240;2023-05-07T07:12:10;100706.16;;;20.81;53.20
51031;BME280;37058;41.442;23.240;2023-05-07T07:14:36;100709.53;;;20.92;52.38
51031;BME280;37058;41.442;23.240;2023-05-07T07:17:02;100708.19;;;20.89;52.82
51031;BME280;37058;41.442;23.240;2023-05-07T07:19:27;100706.03;;;20.86;52.38
51031;BME280;37058;41.442;23.240;2023-05-07T07:21:53;100707.47;;;20.84;52.69
51031;BME280;37058;41.442;23.240;2023-05-07T07:24:19;100707.13;;;20.76;53.40
51031;BME280;37058;41.442;23.240;2023-05-07T07:26:47;100715.13;;;20.78;52.84
51031;BME280;37058;41.442;23.240;2023-05-07T07:29:13;100710.50;;;20.73;52.34
51031;BME280;37058;41.442;23.240;2023-05-07T07:31:39;100709.44;;;20.83;51.38
51031;BME280;37058;41.442;23.240;2023-05-07T07:34:05;100703.88;;;20.83;51.50
51031;BME280;37058;41.442;23.240;2023-05-07T07:36:31;100712.84;;;20.80;51.02
51031;BME280;37058;41.442;23.240;2023-05-07T07:38:56;100704.41;;;20.85;51.19
51031;BME280;37058;41.442;23.240;2023-05-07T07:41:22;100703.03;;;20.96;51.95
51031;BME280;37058;41.442;23.240;2023-05-07T07:43:48;100696.19;;;21.03;50.39
51031;BME280;37058;41.442;23.240;2023-05-07T07:46:14;100695.44;;;21.11;50.22
51031;BME280;37058;41.442;23.240;2023-05-07T07:48:40;100702.19;;;21.18;47.01
51031;BME280;37058;41.442;23.240;2023-05-07T07:51:06;100696.34;;;21.29;48.94
51031;BME280;37058;41.442;23.240;2023-05-07T07:53:32;100696.44;;;21.37;48.29
51031;BME280;37058;41.442;23.240;2023-05-07T07:55:57;100690.34;;;21.35;47.86
51031;BME280;37058;41.442;23.240;2023-05-07T07:58:23;100693.34;;;21.39;47.40
51031;BME280;37058;41.442;23.240;2023-05-07T08:00:50;100692.25;;;21.49;46.65
51031;BME280;37058;41.442;23.240;2023-05-07T08:03:16;100688.53;;;21.53;46.39
51031;BME280;37058;41.442;23.240;2023-05-07T08:05:43;100675.50;;;21.62;45.53
51031;BME280;37058;41.442;23.240;2023-05-07T08:08:09;100677.47;;;21.71;45.57
51031;BME280;37058;41.442;23.240;2023-05-07T08:10:35;100673.03;;;21.70;45.01
51031;BME280;37058;41.442;23.240;2023-05-07T08:13:04;100670.75;;;21.63;45.71
51031;BME280;37058;41.442;23.240;2023-05-07T08:15:31;100677.13;;;21.63;45.95
51031;BME280;37058;41.442;23.240;2023-05-07T08:17:58;100675.00;;;21.69;46.56
51031;BME280;37058;41.442;23.240;2023-05-07T08:20:25;100669.81;;;21.76;46.13
51031;BME280;37058;41.442;23.240;2023-05-07T08:22:51;100672.59;;;21.85;44.56
51031;BME280;37058;41.442;23.240;2023-05-07T08:25:17;100671.31;;;21.91;44.20
51031;BME280;37058;41.442;23.240;2023-05-07T08:27:43;100663.50;;;22.02;43.04
51031;BME280;37058;41.442;23.240;2023-05-07T08:30:11;100663.34;;;22.07;43.61
51031;BME280;37058;41.442;23.240;2023-05-07T08:32:37;100657.63;;;22.12;45.14
51031;BME280;37058;41.442;23.240;2023-05-07T08:35:03;100657.16;;;22.19;43.83
51031;BME280;37058;41.442;23.240;2023-05-07T08:37:29;100652.28;;;22.24;44.12
51031;BME280;37058;41.442;23.240;2023-05-07T08:39:55;100656.69;;;22.25;44.92
51031;BME280;37058;41.442;23.240;2023-05-07T08:42:23;100648.69;;;22.33;44.67
51031;BME280;37058;41.442;23.240;2023-05-07T08:44:51;100646.41;;;22.35;44.89
51031;BME280;37058;41.442;23.240;2023-05-07T08:47:23;100646.72;;;22.33;44.58
51031;BME280;37058;41.442;23.240;2023-05-07T08:49:50;100642.44;;;22.36;45.00
51031;BME280;37058;41.442;23.240;2023-05-07T08:52:16;100645.75;;;22.46;45.31
51031;BME280;37058;41.442;23.240;2023-05-07T08:54:43;100642.97;;;22.55;44.86
51031;BME280;37058;41.442;23.240;2023-05-07T08:57:09;100641.31;;;22.45;44.46
51031;BME280;37058;41.442;23.240;2023-05-07T08:59:35;100641.31;;;22.45;43.92
51031;BME280;37058;41.442;23.240;2023-05-07T09:02:02;100625.94;;;22.39;43.72
51031;BME280;37058;41.442;23.240;2023-05-07T09:04:28;100629.53;;;22.40;44.03
51031;BME280;37058;41.442;23.240;2023-05-07T09:06:54;100625.75;;;22.36;43.82
51031;BME280;37058;41.442;23.240;2023-05-07T09:09:22;100623.66;;;22.50;45.05
51031;BME280;37058;41.442;23.240;2023-05-07T09:11:48;100619.41;;;22.61;42.91
51031;BME280;37058;41.442;23.240;2023-05-07T09:14:13;100621.84;;;22.71;43.45
51031;BME280;37058;41.442;23.240;2023-05-07T09:16:39;100614.75;;;22.83;44.51
51031;BME280;37058;41.442;23.240;2023-05-07T09:19:05;100616.69;;;22.91;43.21
51031;BME280;37058;41.442;23.240;2023-05-07T09:21:31;100614.91;;;22.95;42.38
51031;BME280;37058;41.442;23.240;2023-05-07T09:23:57;100611.31;;;23.03;41.06
51031;BME280;37058;41.442;23.240;2023-05-07T09:26:24;100613.72;;;23.13;40.89
51031;BME280;37058;41.442;23.240;2023-05-07T09:28:51;100603.06;;;23.15;40.80
51031;BME280;37058;41.442;23.240;2023-05-07T09:31:18;100602.72;;;23.26;41.21
51031;BME280;37058;41.442;23.240;2023-05-07T09:33:44;100594.31;;;23.34;40.77
51031;BME280;37058;41.442;23.240;2023-05-07T09:36:10;100594.78;;;23.45;41.53
51031;BME280;37058;41.442;23.240;2023-05-07T09:38:37;100593.56;;;23.55;41.20
51031;BME280;37058;41.442;23.240;2023-05-07T09:41:09;100595.50;;;23.63;40.64
51031;BME280;37058;41.442;23.240;2023-05-07T09:43:37;100583.78;;;23.70;40.82
51031;BME280;37058;41.442;23.240;2023-05-07T09:46:14;100591.53;;;23.73;39.87
51031;BME280;37058;41.442;23.240;2023-05-07T09:48:43;100577.59;;;23.73;39.39
51031;BME280;37058;41.442;23.240;2023-05-07T09:51:32;100572.03;;;23.73;39.72
51031;BME280;37058;41.442;23.240;2023-05-07T09:54:00;100577.84;;;23.80;39.35
51031;BME280;37058;41.442;23.240;2023-05-07T09:56:29;100571.63;;;23.83;37.84
51031;BME280;37058;41.442;23.240;2023-05-07T09:59:00;100567.94;;;23.91;38.57
51031;BME280;37058;41.442;23.240;2023-05-07T10:01:27;100564.28;;;23.99;38.78
51031;BME280;37058;41.442;23.240;2023-05-07T10:03:53;100557.19;;;24.02;37.82
51031;BME280;37058;41.442;23.240;2023-05-07T10:06:20;100559.44;;;24.09;38.25
51031;BME280;37058;41.442;23.240;2023-05-07T10:08:48;100554.81;;;24.13;38.36
51031;BME280;37058;41.442;23.240;2023-05-07T10:11:15;100550.66;;;24.19;37.99
51031;BME280;37058;41.442;23.240;2023-05-07T10:13:43;100561.13;;;24.22;37.77
51031;BME280;37058;41.442;23.240;2023-05-07T10:16:09;100554.53;;;24.27;38.10
51031;BME280;37058;41.442;23.240;2023-05-07T10:18:35;100547.94;;;24.31;38.12
51031;BME280;37058;41.442;23.240;2023-05-07T10:21:17;100555.75;;;24.38;38.53
51031;BME280;37058;41.442;23.240;2023-05-07T10:24:06;100552.41;;;24.44;38.65
51031;BME280;37058;41.442;23.240;2023-05-07T10:26:44;100549.09;;;24.51;38.20
51031;BME280;37058;41.442;23.240;2023-05-07T10:35:02;100537.44;;;24.49;38.48
51031;BME280;37058;41.442;23.240;2023-05-07T10:37:29;100529.66;;;24.55;38.92
51031;BME280;37058;41.442;23.240;2023-05-07T10:39:55;100534.09;;;24.56;38.11
51031;BME280;37058;41.442;23.240;2023-05-07T10:42:23;100517.00;;;24.57;37.90
51031;BME280;37058;41.442;23.240;2023-05-07T10:44:49;100522.69;;;24.61;38.81
51031;BME280;37058;41.442;23.240;2023-05-07T10:47:16;100519.69;;;24.66;38.12
51031;BME280;37058;41.442;23.240;2023-05-07T10:52:13;100516.88;;;24.66;38.53
51031;BME280;37058;41.442;23.240;2023-05-07T10:54:40;100502.59;;;24.68;39.10
51031;BME280;37058;41.442;23.240;2023-05-07T10:57:35;100507.63;;;24.74;38.48
51031;BME280;37058;41.442;23.240;2023-05-07T11:05:28;100502.41;;;24.97;38.68
51031;BME280;37058;41.442;23.240;2023-05-07T11:08:04;100497.75;;;25.01;37.67
51031;BME280;37058;41.442;23.240;2023-05-07T11:13:45;100503.69;;;25.12;38.26
51031;BME280;37058;41.442;23.240;2023-05-07T11:16:22;100502.31;;;25.18;36.88
51031;BME280;37058;41.442;23.240;2023-05-07T11:18:54;100506.84;;;25.11;37.36
51031;BME280;37058;41.442;23.240;2023-05-07T11:21:37;100505.31;;;25.13;37.36
51031;BME280;37058;41.442;23.240;2023-05-07T11:24:05;100508.59;;;25.15;37.98
51031;BME280;37058;41.442;23.240;2023-05-07T11:26:51;100498.91;;;25.13;37.01
51031;BME280;37058;41.442;23.240;2023-05-07T11:29:19;100502.19;;;25.15;36.92
51031;BME280;37058;41.442;23.240;2023-05-07T11:31:54;100486.50;;;25.22;37.26
51031;BME280;37058;41.442;23.240;2023-05-07T11:34:25;100493.84;;;25.27;36.52
51031;BME280;37058;41.442;23.240;2023-05-07T11:36:52;100491.47;;;25.29;35.80
51031;BME280;37058;41.442;23.240;2023-05-07T11:39:32;100489.16;;;25.31;36.40
51031;BME280;37058;41.442;23.240;2023-05-07T11:42:02;100485.56;;;25.30;35.67
51031;BME280;37058;41.442;23.240;2023-05-07T11:44:44;100481.25;;;25.33;35.12
51031;BME280;37058;41.442;23.240;2023-05-07T11:47:17;100472.53;;;25.35;35.00
51031;BME280;37058;41.442;23.240;2023-05-07T11:49:43;100475.88;;;25.28;34.75
51031;BME280;37058;41.442;23.240;2023-05-07T11:52:09;100476.00;;;25.32;35.68
51031;BME280;37058;41.442;23.240;2023-05-07T11:54:38;100470.06;;;25.33;36.12
51031;BME280;37058;41.442;23.240;2023-05-07T11:57:04;100482.75;;;25.43;37.18
51031;BME280;37058;41.442;23.240;2023-05-07T11:59:39;100474.69;;;25.54;37.61
51031;BME280;37058;41.442;23.240;2023-05-07T12:02:07;100468.75;;;25.55;35.92
51031;BME280;37058;41.442;23.240;2023-05-07T12:04:33;100465.03;;;25.51;35.21
51031;BME280;37058;41.442;23.240;2023-05-07T12:06:59;100463.75;;;25.48;34.43
51031;BME280;37058;41.442;23.240;2023-05-07T12:09:26;100456.78;;;25.42;35.09
51031;BME280;37058;41.442;23.240;2023-05-07T12:11:52;100448.25;;;25.51;35.45
51031;BME280;37058;41.442;23.240;2023-05-07T12:14:18;100448.72;;;25.53;34.87
51031;BME280;37058;41.442;23.240;2023-05-07T12:16:44;100441.94;;;25.54;34.88
51031;BME280;37058;41.442;23.240;2023-05-07T12:19:11;100441.47;;;25.52;35.45
51031;BME280;37058;41.442;23.240;2023-05-07T12:21:41;100433.69;;;25.58;35.61
51031;BME280;37058;41.442;23.240;2023-05-07T12:24:08;100436.56;;;25.61;35.68
51031;BME280;37058;41.442;23.240;2023-05-07T12:26:38;100426.75;;;25.67;35.55
51031;BME280;37058;41.442;23.240;2023-05-07T12:29:06;100433.75;;;25.73;36.10
51031;BME280;37058;41.442;23.240;2023-05-07T12:31:32;100428.22;;;25.77;35.48
51031;BME280;37058;41.442;23.240;2023-05-07T12:33:58;100430.69;;;25.79;35.21
51031;BME280;37058;41.442;23.240;2023-05-07T12:36:24;100426.72;;;25.80;33.41
51031;BME280;37058;41.442;23.240;2023-05-07T12:38:51;100423.22;;;25.83;33.07
51031;BME280;37058;41.442;23.240;2023-05-07T12:41:17;100419.50;;;25.79;33.33
51031;BME280;37058;41.442;23.240;2023-05-07T12:43:44;100426.72;;;25.80;33.57
51031;BME280;37058;41.442;23.240;2023-05-07T12:46:12;100422.63;;;25.77;32.25
51031;BME280;37058;41.442;23.240;2023-05-07T12:48:45;100417.66;;;25.70;32.69
51031;BME280;37058;41.442;23.240;2023-05-07T12:51:11;100408.91;;;25.72;32.04
51031;BME280;37058;41.442;23.240;2023-05-07T12:53:43;100409.03;;;25.76;31.94
51031;BME280;37058;41.442;23.240;2023-05-07T12:56:09;100403.44;;;25.76;32.03